createdAt,value
2024-03-30T00:01:11.595Z,99342.09
2024-03-30T00:03:43.672Z,99340.74
2024-03-30T00:06:15.167Z,99340.40
2024-03-30T00:08:46.172Z,99340.26
2024-03-30T00:11:16.780Z,99341.10
2024-03-30T00:13:47.278Z,99333.92
2024-03-30T00:16:18.724Z,99333.28
2024-03-30T00:18:47.983Z,99335.17
2024-03-30T00:21:19.320Z,99328.52
2024-03-30T00:23:50.182Z,99327.30
2024-03-30T00:26:20.894Z,99331.39
2024-03-30T00:28:51.626Z,99334.45
2024-03-30T00:31:26.641Z,99333.77
2024-03-30T00:33:58.220Z,99330.67
2024-03-30T00:36:27.319Z,99325.02
2024-03-30T00:38:59.091Z,99318.70
2024-03-30T00:41:29.660Z,99321.08
2024-03-30T00:44:00.110Z,99316.10
2024-03-30T00:46:31.185Z,99313.34
2024-03-30T00:49:01.702Z,99309.54
2024-03-30T00:51:32.958Z,99308.81
2024-03-30T00:54:03.505Z,99304.85
2024-03-30T00:56:33.982Z,99311.88
2024-03-30T00:59:05.097Z,99312.90
2024-03-30T01:01:35.791Z,99313.58
2024-03-30T01:04:06.532Z,99317.70
2024-03-30T01:06:37.362Z,99314.97
2024-03-30T01:09:08.960Z,99318.58
2024-03-30T01:11:40.322Z,99320.63
2024-03-30T01:14:09.716Z,99321.71
2024-03-30T01:16:42.230Z,99317.96
2024-03-30T01:19:14.968Z,99315.08
2024-03-30T01:21:46.838Z,99318.52
2024-03-30T01:24:20.391Z,99321.78
2024-03-30T01:26:56.567Z,99321.48
2024-03-30T01:29:29.956Z,99321.20
2024-03-30T01:32:01.420Z,99327.52
2024-03-30T01:34:34.440Z,99322.22
2024-03-30T01:37:05.084Z,99325.64
2024-03-30T01:39:35.978Z,99322.02
2024-03-30T01:42:06.811Z,99324.77
2024-03-30T01:44:37.278Z,99321.20
2024-03-30T01:47:08.695Z,99322.87
2024-03-30T01:49:39.456Z,99322.53
2024-03-30T01:52:10.000Z,99326.10
2024-03-30T01:54:40.774Z,99322.36
2024-03-30T01:57:11.638Z,99324.95
2024-03-30T01:59:42.685Z,99321.59
2024-03-30T02:02:15.373Z,99321.09
2024-03-30T02:04:46.255Z,99320.26
2024-03-30T02:07:17.451Z,99317.06
2024-03-30T02:09:49.337Z,99314.90
2024-03-30T02:12:20.486Z,99309.33
2024-03-30T02:14:51.068Z,99312.98
2024-03-30T02:17:21.638Z,99312.14
2024-03-30T02:19:57.228Z,99315.42
2024-03-30T02:22:28.923Z,99321.96
2024-03-30T02:24:59.732Z,99319.61
2024-03-30T02:27:30.828Z,99321.35
2024-03-30T02:30:04.363Z,99325.31
2024-03-30T02:32:34.866Z,99323.64
2024-03-30T02:35:06.076Z,99325.05
2024-03-30T02:37:36.689Z,99328.34
2024-03-30T02:40:11.558Z,99328.17
2024-03-30T02:42:42.182Z,99326.15
2024-03-30T02:45:17.070Z,99330.27
2024-03-30T02:47:47.600Z,99331.84
2024-03-30T02:50:18.136Z,99328.61
2024-03-30T02:52:48.704Z,99324.65
2024-03-30T02:55:19.471Z,99322.41
2024-03-30T02:57:50.071Z,99327.41
2024-03-30T03:00:21.336Z,99334.61
2024-03-30T03:02:52.993Z,99327.77
2024-03-30T03:05:23.716Z,99331.55
2024-03-30T03:07:54.250Z,99330.20
2024-03-30T03:10:25.022Z,99331.47
2024-03-30T03:12:55.504Z,99333.19
2024-03-30T03:15:26.028Z,99337.16
2024-03-30T03:17:56.532Z,99333.48
2024-03-30T03:20:27.094Z,99329.59
2024-03-30T03:22:57.837Z,99327.77
2024-03-30T03:25:28.470Z,99324.92
2024-03-30T03:27:59.101Z,99330.41
2024-03-30T03:30:29.592Z,99336.91
2024-03-30T03:33:01.304Z,99337.09
2024-03-30T03:35:32.129Z,99338.80
2024-03-30T03:38:02.799Z,99338.13
2024-03-30T03:40:34.017Z,99339.16
2024-03-30T03:43:04.746Z,99346.67
2024-03-30T03:45:36.688Z,99342.91
2024-03-30T03:48:08.699Z,99343.59
2024-03-30T03:50:39.452Z,99353.16
2024-03-30T03:53:10.249Z,99351.46
2024-03-30T03:55:40.876Z,99346.06
2024-03-30T03:58:11.513Z,99345.22
2024-03-30T04:00:42.333Z,99344.36
2024-03-30T04:03:12.814Z,99351.16
2024-03-30T04:05:43.438Z,99349.35
2024-03-30T04:08:14.058Z,99348.35
2024-03-30T04:10:44.697Z,99351.11
2024-03-30T04:13:15.181Z,99357.91
2024-03-30T04:15:45.832Z,99366.79
2024-03-30T04:18:16.306Z,99371.77
2024-03-30T04:20:57.214Z,99371.63
2024-03-30T04:23:32.343Z,99373.88
2024-03-30T04:26:11.300Z,99380.17
2024-03-30T04:28:42.455Z,99382.06
2024-03-30T04:31:13.343Z,99386.00
2024-03-30T04:33:43.924Z,99389.62
2024-03-30T04:36:15.215Z,99396.81
2024-03-30T04:38:45.767Z,99394.89
2024-03-30T04:41:16.339Z,99392.19
2024-03-30T04:43:47.036Z,99385.85
2024-03-30T04:46:17.857Z,99391.41
2024-03-30T04:48:48.892Z,99388.46
2024-03-30T04:51:19.504Z,99387.55
2024-03-30T04:53:49.946Z,99393.27
2024-03-30T04:56:22.000Z,99398.06
2024-03-30T04:58:52.496Z,99395.13
2024-03-30T05:01:23.167Z,99394.98
2024-03-30T05:03:53.679Z,99402.65
2024-03-30T05:06:24.204Z,99406.55
2024-03-30T05:08:54.750Z,99406.73
2024-03-30T05:11:25.304Z,99402.08
2024-03-30T05:13:56.139Z,99396.77
2024-03-30T05:16:26.748Z,99392.36
2024-03-30T05:18:59.516Z,99387.77
2024-03-30T05:21:29.977Z,99385.19
2024-03-30T05:24:00.769Z,99374.78
2024-03-30T05:26:31.420Z,99374.23
2024-03-30T05:29:01.948Z,99374.17
2024-03-30T05:31:32.579Z,99374.12
2024-03-30T05:34:02.977Z,99370.50
2024-03-30T05:36:33.848Z,99370.65
2024-03-30T05:39:04.419Z,99364.73
2024-03-30T05:41:35.048Z,99362.63
2024-03-30T05:44:06.291Z,99362.61
2024-03-30T05:46:36.889Z,99359.50
2024-03-30T05:49:07.336Z,99361.45
2024-03-30T05:51:37.957Z,99358.60
2024-03-30T05:54:08.695Z,99362.89
2024-03-30T05:56:39.320Z,99364.52
2024-03-30T05:59:09.827Z,99368.05
2024-03-30T06:01:40.482Z,99367.98
2024-03-30T06:04:11.000Z,99368.35
2024-03-30T06:06:41.558Z,99370.56
2024-03-30T06:09:12.116Z,99368.47
2024-03-30T06:11:43.730Z,99368.47
2024-03-30T06:14:14.364Z,99368.30
2024-03-30T06:16:46.162Z,99369.00
2024-03-30T06:19:16.716Z,99374.71
2024-03-30T06:21:47.292Z,99377.20
2024-03-30T06:24:17.938Z,99371.00
2024-03-30T06:26:48.558Z,99369.83
2024-03-30T06:29:19.187Z,99370.02
2024-03-30T06:31:50.022Z,99373.08
2024-03-30T06:34:20.864Z,99379.48
2024-03-30T06:36:49.896Z,99380.77
2024-03-30T06:39:20.388Z,99383.39
2024-03-30T06:42:08.472Z,99384.10
2024-03-30T06:44:39.147Z,99385.86
2024-03-30T06:47:09.824Z,99381.73
2024-03-30T06:49:38.839Z,99374.75
2024-03-30T06:52:09.715Z,99376.27
2024-03-30T06:54:40.256Z,99382.92
2024-03-30T06:57:10.900Z,99373.45
2024-03-30T06:59:39.950Z,99376.64
2024-03-30T07:02:10.589Z,99375.21
2024-03-30T07:04:41.136Z,99373.07
2024-03-30T07:07:14.268Z,99377.61
2024-03-30T07:09:46.300Z,99373.80
2024-03-30T07:12:16.761Z,99382.41
2024-03-30T07:14:47.248Z,99381.73
2024-03-30T07:17:17.713Z,99381.59
2024-03-30T07:19:48.466Z,99383.44
2024-03-30T07:22:18.969Z,99387.55
2024-03-30T07:24:49.976Z,99390.73
2024-03-30T07:27:20.535Z,99394.50
2024-03-30T07:29:53.363Z,99390.98
2024-03-30T07:32:23.889Z,99387.15
2024-03-30T07:34:54.402Z,99383.73
2024-03-30T07:37:23.434Z,99386.77
2024-03-30T07:39:54.592Z,99387.69
2024-03-30T07:42:25.108Z,99390.34
2024-03-30T07:44:54.097Z,99386.95
2024-03-30T07:47:24.891Z,99384.23
2024-03-30T07:49:55.958Z,99385.20
2024-03-30T07:52:26.520Z,99381.48
2024-03-30T07:54:57.091Z,99380.99
2024-03-30T07:57:27.989Z,99377.38
2024-03-30T07:59:58.397Z,99375.37
2024-03-30T08:02:27.320Z,99380.17
2024-03-30T08:04:57.748Z,99379.71
2024-03-30T08:07:26.712Z,99379.36
2024-03-30T08:09:57.165Z,99378.89
2024-03-30T08:12:26.280Z,99380.05
2024-03-30T08:14:56.754Z,99381.80
2024-03-30T08:17:27.328Z,99377.76
2024-03-30T08:19:57.794Z,99379.41
2024-03-30T08:22:28.338Z,99375.07
2024-03-30T08:24:58.807Z,99373.56
2024-03-30T08:27:28.182Z,99372.23
2024-03-30T08:29:58.655Z,99365.80
2024-03-30T08:32:29.173Z,99364.60
2024-03-30T08:34:58.180Z,99358.96
2024-03-30T08:37:28.703Z,99359.41
2024-03-30T08:39:57.675Z,99356.27
2024-03-30T08:42:28.116Z,99356.97
2024-03-30T08:44:58.736Z,99349.35
2024-03-30T08:47:29.308Z,99351.67
2024-03-30T08:49:58.304Z,99357.67
2024-03-30T08:52:29.101Z,99354.42
2024-03-30T08:54:59.627Z,99353.72
2024-03-30T08:57:30.116Z,99351.48
2024-03-30T09:00:00.691Z,99349.80
2024-03-30T09:02:33.641Z,99349.06
2024-03-30T09:05:04.176Z,99357.35
2024-03-30T09:07:35.110Z,99352.29
2024-03-30T09:10:06.561Z,99352.16
2024-03-30T09:12:37.105Z,99352.42
2024-03-30T09:15:08.361Z,99354.29
2024-03-30T09:17:38.837Z,99354.77
2024-03-30T09:20:11.480Z,99355.39
2024-03-30T09:22:43.436Z,99352.95
2024-03-30T09:25:15.834Z,99346.80
2024-03-30T09:27:46.286Z,99340.45
2024-03-30T09:30:16.751Z,99340.57
2024-03-30T09:32:48.375Z,99343.47
2024-03-30T09:35:19.107Z,99339.80
2024-03-30T09:37:48.271Z,99343.96
2024-03-30T09:40:19.541Z,99341.80
2024-03-30T09:42:50.777Z,99339.86
2024-03-30T09:45:21.595Z,99337.52
2024-03-30T09:47:51.163Z,99328.91
2024-03-30T09:50:24.909Z,99326.19
2024-03-30T09:52:56.405Z,99328.41
2024-03-30T09:55:28.523Z,99328.16
2024-03-30T09:57:59.659Z,99324.99
2024-03-30T10:00:31.295Z,99327.20
2024-03-30T10:03:01.904Z,99321.30
2024-03-30T10:05:38.496Z,99321.27
2024-03-30T10:08:18.570Z,99314.49
2024-03-30T10:10:55.345Z,99322.99
2024-03-30T10:13:31.693Z,99315.85
2024-03-30T10:16:02.256Z,99312.77
2024-03-30T10:18:32.742Z,99313.67
2024-03-30T10:21:06.023Z,99309.13
2024-03-30T10:23:38.717Z,99307.24
2024-03-30T10:26:18.540Z,99311.77
2024-03-30T10:28:49.033Z,99308.54
2024-03-30T10:31:21.663Z,99310.66
2024-03-30T10:33:53.676Z,99312.91
2024-03-30T10:36:24.811Z,99315.36
2024-03-30T10:38:55.499Z,99314.84
2024-03-30T10:41:29.148Z,99312.72
2024-03-30T10:43:59.801Z,99311.67
2024-03-30T10:46:30.996Z,99305.52
2024-03-30T10:49:01.542Z,99306.36
2024-03-30T10:51:32.124Z,99304.33
2024-03-30T10:54:11.040Z,99303.30
2024-03-30T10:56:47.307Z,99300.51
2024-03-30T10:59:19.866Z,99300.55
2024-03-30T11:01:52.445Z,99298.27
2024-03-30T11:04:23.385Z,99303.46
2024-03-30T11:06:54.256Z,99296.65
2024-03-30T11:09:26.548Z,99295.46
2024-03-30T11:11:57.065Z,99300.52
2024-03-30T11:14:27.678Z,99304.30
2024-03-30T11:17:01.974Z,99297.98
2024-03-30T11:19:38.905Z,99300.45
2024-03-30T11:22:18.109Z,99298.73
2024-03-30T11:24:56.162Z,99294.95
2024-03-30T11:27:33.244Z,99294.60
2024-03-30T11:30:12.101Z,99288.30
2024-03-30T11:32:51.387Z,99285.81
2024-03-30T11:35:29.858Z,99286.94
2024-03-30T11:38:04.751Z,99285.65
2024-03-30T11:40:38.972Z,99277.85
2024-03-30T11:43:23.785Z,99284.78
2024-03-30T11:45:55.249Z,99284.17
2024-03-30T11:48:26.372Z,99283.67
2024-03-30T11:50:57.513Z,99282.17
2024-03-30T11:53:35.419Z,99280.38
2024-03-30T11:56:06.575Z,99282.50
2024-03-30T11:58:38.858Z,99278.71
2024-03-30T12:01:13.404Z,99277.52
2024-03-30T12:03:44.481Z,99283.10
2024-03-30T12:06:22.894Z,99274.48
2024-03-30T12:08:54.609Z,99278.80
2024-03-30T12:11:25.172Z,99280.96
2024-03-30T12:13:58.076Z,99277.77
2024-03-30T12:16:28.792Z,99269.52
2024-03-30T12:18:59.753Z,99265.98
2024-03-30T12:21:31.387Z,99259.90
2024-03-30T12:24:02.429Z,99251.89
2024-03-30T12:26:33.305Z,99248.33
2024-03-30T12:29:04.629Z,99244.27
2024-03-30T12:31:35.148Z,99249.84
2024-03-30T12:34:05.687Z,99249.58
2024-03-30T12:36:36.407Z,99247.90
2024-03-30T12:39:08.764Z,99241.34
2024-03-30T12:41:39.997Z,99243.85
2024-03-30T12:44:10.530Z,99244.48
2024-03-30T12:46:41.213Z,99248.27
2024-03-30T12:49:12.226Z,99245.48
2024-03-30T12:51:43.841Z,99243.10
2024-03-30T12:54:14.405Z,99246.94
2024-03-30T12:56:45.687Z,99241.73
2024-03-30T12:59:17.307Z,99248.73
2024-03-30T13:01:48.132Z,99255.55
2024-03-30T13:04:19.527Z,99256.29
2024-03-30T13:06:56.469Z,99243.59
2024-03-30T13:09:29.651Z,99243.20
2024-03-30T13:12:02.751Z,99247.35
2024-03-30T13:14:37.092Z,99250.54
2024-03-30T13:17:09.344Z,99254.45
2024-03-30T13:19:40.532Z,99242.60
2024-03-30T13:22:13.724Z,99240.25
2024-03-30T13:24:44.419Z,99237.18
2024-03-30T13:27:15.021Z,99235.77
2024-03-30T13:29:45.657Z,99233.50
2024-03-30T13:32:16.146Z,99237.34
2024-03-30T13:34:46.614Z,99237.45
2024-03-30T13:37:17.532Z,99230.66
2024-03-30T13:39:46.523Z,99229.16
2024-03-30T13:42:17.041Z,99218.58
2024-03-30T13:44:47.464Z,99208.83
2024-03-30T13:47:19.841Z,99206.69
2024-03-30T13:49:52.553Z,99202.92
2024-03-30T13:52:24.595Z,99205.27
2024-03-30T13:54:55.057Z,99206.69
2024-03-30T13:57:25.711Z,99202.34
2024-03-30T13:59:56.504Z,99200.58
2024-03-30T14:02:29.267Z,99203.66
2024-03-30T14:04:59.786Z,99201.60
2024-03-30T14:07:30.242Z,99194.63
2024-03-30T14:10:00.782Z,99189.61
2024-03-30T14:12:31.206Z,99182.64
2024-03-30T14:15:04.065Z,99179.80
2024-03-30T14:17:39.833Z,99172.64
2024-03-30T14:20:12.442Z,99174.48
2024-03-30T14:22:43.468Z,99173.10
2024-03-30T14:25:14.008Z,99168.47
2024-03-30T14:27:44.481Z,99161.77
2024-03-30T14:30:15.145Z,99169.13
2024-03-30T14:32:45.752Z,99162.03
2024-03-30T14:35:19.673Z,99162.29
2024-03-30T14:37:50.285Z,99160.68
2024-03-30T14:40:20.927Z,99158.20
2024-03-30T14:42:52.274Z,99156.77
2024-03-30T14:45:22.745Z,99154.92
2024-03-30T14:47:53.203Z,99154.77
2024-03-30T14:50:23.613Z,99151.01
2024-03-30T14:52:55.520Z,99154.16
2024-03-30T14:55:25.964Z,99156.41
2024-03-30T14:57:56.455Z,99154.46
2024-03-30T15:00:26.989Z,99154.98
2024-03-30T15:02:57.495Z,99150.48
2024-03-30T15:05:28.010Z,99149.51
2024-03-30T15:07:58.446Z,99147.05
2024-03-30T15:10:29.843Z,99147.17
2024-03-30T15:13:02.233Z,99150.67
2024-03-30T15:15:33.018Z,99151.92
2024-03-30T15:18:05.518Z,99152.07
2024-03-30T15:20:37.401Z,99147.27
2024-03-30T15:23:09.235Z,99148.68
2024-03-30T15:25:39.710Z,99146.25
2024-03-30T15:28:10.302Z,99147.91
2024-03-30T15:30:58.459Z,99145.98
2024-03-30T15:33:29.655Z,99145.60
2024-03-30T15:36:03.316Z,99147.51
2024-03-30T15:38:33.847Z,99142.27
2024-03-30T15:41:04.742Z,99144.25
2024-03-30T15:43:35.353Z,99146.21
2024-03-30T15:46:06.136Z,99142.84
2024-03-30T15:48:36.752Z,99144.44
2024-03-30T15:51:09.253Z,99148.64
2024-03-30T15:53:39.649Z,99140.74
2024-03-30T15:56:11.345Z,99138.14
2024-03-30T15:58:42.080Z,99138.30
2024-03-30T16:01:12.686Z,99140.35
2024-03-30T16:03:44.194Z,99136.38
2024-03-30T16:06:14.759Z,99140.10
2024-03-30T16:08:45.230Z,99139.63
2024-03-30T16:11:15.754Z,99147.02
2024-03-30T16:13:46.461Z,99140.30
2024-03-30T16:16:18.058Z,99142.73
2024-03-30T16:18:48.523Z,99139.63
2024-03-30T16:21:19.160Z,99143.52
2024-03-30T16:23:49.705Z,99141.44
2024-03-30T16:26:20.827Z,99141.91
2024-03-30T16:28:51.450Z,99142.21
2024-03-30T16:31:27.761Z,99137.83
2024-03-30T16:34:05.925Z,99139.10
2024-03-30T16:36:36.391Z,99135.52
2024-03-30T16:39:17.787Z,99131.77
2024-03-30T16:41:52.069Z,99139.52
2024-03-30T16:44:30.004Z,99133.58
2024-03-30T16:47:02.996Z,99133.17
2024-03-30T16:49:33.495Z,99133.73
2024-03-30T16:52:04.125Z,99132.60
2024-03-30T16:54:35.671Z,99131.50
2024-03-30T16:57:07.967Z,99131.95
2024-03-30T16:59:38.456Z,99130.96
2024-03-30T17:02:10.999Z,99131.93
2024-03-30T17:04:41.474Z,99128.45
2024-03-30T17:07:11.915Z,99129.71
2024-03-30T17:09:42.356Z,99128.92
2024-03-30T17:12:12.862Z,99127.20
2024-03-30T17:14:45.260Z,99127.34
2024-03-30T17:17:17.189Z,99129.48
2024-03-30T17:19:51.684Z,99132.27
2024-03-30T17:22:23.339Z,99132.38
2024-03-30T17:24:54.081Z,99137.31
2024-03-30T17:27:24.580Z,99136.96
2024-03-30T17:29:55.392Z,99136.04
2024-03-30T17:32:25.869Z,99142.90
2024-03-30T17:35:03.800Z,99140.72
2024-03-30T17:37:34.310Z,99140.40
2024-03-30T17:40:05.001Z,99144.69
2024-03-30T17:42:35.540Z,99150.86
2024-03-30T17:45:07.020Z,99151.20
2024-03-30T17:47:37.453Z,99150.52
2024-03-30T17:50:09.404Z,99150.41
2024-03-30T17:52:39.887Z,99153.05
2024-03-30T17:55:10.682Z,99154.84
2024-03-30T17:57:41.086Z,99158.89
2024-03-30T18:00:13.129Z,99159.83
2024-03-30T18:02:49.682Z,99162.70
2024-03-30T18:05:20.202Z,99166.20
2024-03-30T18:07:50.814Z,99167.80
2024-03-30T18:10:21.382Z,99165.59
2024-03-30T18:12:51.832Z,99167.89
2024-03-30T18:15:25.584Z,99168.93
2024-03-30T18:17:55.996Z,99169.73
2024-03-30T18:20:26.473Z,99173.14
2024-03-30T18:22:57.110Z,99171.48
2024-03-30T18:25:35.452Z,99164.48
2024-03-30T18:28:07.916Z,99167.52
2024-03-30T18:30:38.861Z,99174.73
2024-03-30T18:33:13.136Z,99167.20
2024-03-30T18:35:44.784Z,99169.70
2024-03-30T18:38:15.289Z,99175.05
2024-03-30T18:40:46.066Z,99175.06
2024-03-30T18:43:16.532Z,99174.88
2024-03-30T18:45:47.651Z,99177.80
2024-03-30T18:48:20.119Z,99176.73
2024-03-30T18:50:50.542Z,99180.55
2024-03-30T18:53:21.119Z,99183.04
2024-03-30T18:55:51.586Z,99183.48
2024-03-30T18:58:22.084Z,99181.81
2024-03-30T19:00:52.529Z,99182.27
2024-03-30T19:03:23.038Z,99184.62
2024-03-30T19:05:54.012Z,99191.73
2024-03-30T19:08:24.496Z,99193.27
2024-03-30T19:10:54.916Z,99199.71
2024-03-30T19:13:25.495Z,99199.11
2024-03-30T19:15:59.521Z,99197.02
2024-03-30T19:18:29.983Z,99193.44
2024-03-30T19:21:04.074Z,99193.89
2024-03-30T19:23:35.499Z,99193.46
2024-03-30T19:26:06.327Z,99192.23
2024-03-30T19:28:36.756Z,99191.65
2024-03-30T19:31:08.501Z,99195.73
2024-03-30T19:33:39.817Z,99195.50
2024-03-30T19:36:10.608Z,99197.96
2024-03-30T19:38:41.192Z,99198.21
2024-03-30T19:41:12.809Z,99201.66
2024-03-30T19:43:45.023Z,99201.77
2024-03-30T19:46:18.077Z,99200.91
2024-03-30T19:48:48.498Z,99203.63
2024-03-30T19:51:18.939Z,99207.21
2024-03-30T19:53:49.376Z,99203.09
2024-03-30T19:56:20.077Z,99202.10
2024-03-30T19:58:50.595Z,99202.35
2024-03-30T20:01:22.918Z,99207.21
2024-03-30T20:03:53.582Z,99207.68
2024-03-30T20:06:24.462Z,99210.17
2024-03-30T20:08:54.936Z,99214.17
2024-03-30T20:11:25.531Z,99219.59
2024-03-30T20:13:56.014Z,99220.17
2024-03-30T20:16:27.223Z,99221.71
2024-03-30T20:19:00.646Z,99228.18
2024-03-30T20:21:31.379Z,99224.13
2024-03-30T20:24:01.860Z,99226.15
2024-03-30T20:26:32.387Z,99231.20
2024-03-30T20:29:03.371Z,99232.45
2024-03-30T20:31:33.864Z,99233.98
2024-03-30T20:34:04.286Z,99234.05
2024-03-30T20:36:35.735Z,99232.01
2024-03-30T20:39:07.943Z,99233.30
2024-03-30T20:41:38.785Z,99232.83
2024-03-30T20:44:09.666Z,99237.65
2024-03-30T20:46:40.124Z,99240.08
2024-03-30T20:49:11.523Z,99244.42
2024-03-30T20:51:42.003Z,99241.89
2024-03-30T20:54:12.465Z,99244.00
2024-03-30T20:56:43.772Z,99247.85
2024-03-30T20:59:14.833Z,99243.40
2024-03-30T21:01:46.147Z,99242.98
2024-03-30T21:04:17.795Z,99239.88
2024-03-30T21:06:48.237Z,99236.77
2024-03-30T21:09:18.748Z,99240.28
2024-03-30T21:11:49.380Z,99240.72
2024-03-30T21:14:19.982Z,99242.58
2024-03-30T21:16:50.971Z,99239.34
2024-03-30T21:19:21.561Z,99241.68
2024-03-30T21:21:53.171Z,99242.52
2024-03-30T21:24:25.571Z,99240.92
2024-03-30T21:26:56.063Z,99239.66
2024-03-30T21:29:26.517Z,99237.23
2024-03-30T21:31:56.952Z,99241.80
2024-03-30T21:34:27.476Z,99243.65
2024-03-30T21:36:57.891Z,99247.55
2024-03-30T21:39:28.747Z,99249.79
2024-03-30T21:41:59.913Z,99253.14
2024-03-30T21:44:31.221Z,99254.98
2024-03-30T21:47:01.692Z,99258.17
2024-03-30T21:49:32.112Z,99251.38
2024-03-30T21:52:02.645Z,99254.38
2024-03-30T21:54:33.909Z,99255.66
2024-03-30T21:57:05.763Z,99252.56
2024-03-30T21:59:36.617Z,99255.57
2024-03-30T22:02:07.228Z,99253.28
2024-03-30T22:04:37.706Z,99254.57
2024-03-30T22:07:09.138Z,99254.63
2024-03-30T22:09:39.592Z,99255.72
2024-03-30T22:12:10.475Z,99259.23
2024-03-30T22:14:40.890Z,99254.20
2024-03-30T22:17:11.433Z,99254.52
2024-03-30T22:19:41.890Z,99253.00
2024-03-30T22:22:12.320Z,99254.41
2024-03-30T22:24:42.784Z,99255.17
2024-03-30T22:27:13.253Z,99252.63
2024-03-30T22:29:43.669Z,99255.30
2024-03-30T22:32:14.181Z,99253.67
2024-03-30T22:34:44.680Z,99250.94
2024-03-30T22:37:15.127Z,99248.34
2024-03-30T22:39:49.336Z,99244.19
2024-03-30T22:42:19.800Z,99241.70
2024-03-30T22:44:51.703Z,99238.46
2024-03-30T22:47:22.232Z,99240.92
2024-03-30T22:49:52.961Z,99242.84
2024-03-30T22:52:23.428Z,99241.02
2024-03-30T22:54:54.139Z,99244.55
2024-03-30T22:57:24.646Z,99247.77
2024-03-30T22:59:55.152Z,99246.67
2024-03-30T23:02:25.621Z,99244.20
2024-03-30T23:04:57.813Z,99241.27
2024-03-30T23:07:28.354Z,99240.02
2024-03-30T23:09:58.828Z,99235.08
2024-03-30T23:12:29.446Z,99235.17
2024-03-30T23:14:59.974Z,99229.30
2024-03-30T23:17:30.838Z,99223.30
2024-03-30T23:20:01.379Z,99216.98
2024-03-30T23:22:31.913Z,99221.20
2024-03-30T23:25:02.418Z,99218.36
2024-03-30T23:27:32.910Z,99213.40
2024-03-30T23:30:03.661Z,99210.89
2024-03-30T23:32:34.107Z,99206.05
2024-03-30T23:35:04.664Z,99206.32
2024-03-30T23:37:35.143Z,99208.52
2024-03-30T23:40:06.301Z,99212.20
2024-03-30T23:42:35.421Z,99208.88
2024-03-30T23:45:08.222Z,99204.41
2024-03-30T23:47:38.727Z,99196.77
2024-03-30T23:50:09.878Z,99199.72
2024-03-30T23:52:39.202Z,99204.42
2024-03-30T23:55:10.035Z,99202.15
2024-03-30T23:57:41.237Z,99202.99
